createdAt,value
2023-04-22T05:09:26.752Z,25.87
2023-04-22T05:11:54.780Z,26.53
2023-04-22T05:14:22.800Z,28.70
2023-04-22T05:25:25.640Z,30.20
2023-04-22T05:27:53.719Z,32.70
2023-04-22T05:30:22.044Z,32.33
2023-04-22T05:32:50.143Z,32.13
2023-04-22T05:35:18.445Z,31.27
2023-04-22T05:37:46.466Z,33.50
2023-04-22T05:40:14.589Z,33.03
2023-04-22T05:42:44.039Z,34.47
2023-04-22T05:45:12.724Z,32.77
2023-04-22T05:47:40.914Z,33.97
2023-04-22T05:50:09.901Z,35.73
2023-04-22T05:52:37.919Z,34.80
2023-04-22T05:55:07.141Z,34.70
2023-04-22T05:57:35.229Z,34.17
2023-04-22T06:00:06.035Z,32.83
2023-04-22T06:02:34.164Z,32.40
2023-04-22T06:05:02.529Z,34.50
2023-04-22T06:07:30.891Z,33.80
2023-04-22T06:10:04.635Z,34.50
2023-04-22T06:12:34.513Z,34.33
2023-04-22T06:15:04.074Z,34.53
2023-04-22T06:17:32.136Z,34.33
2023-04-22T06:20:00.238Z,33.83
2023-04-22T06:22:28.284Z,33.00
2023-04-22T06:24:56.382Z,33.00
2023-04-22T06:27:24.428Z,32.57
2023-04-22T06:29:52.514Z,33.80
2023-04-22T06:32:21.937Z,33.17
2023-04-22T06:34:49.934Z,32.57
2023-04-22T06:37:17.997Z,32.47
2023-04-22T06:39:46.024Z,31.77
2023-04-22T06:42:14.098Z,31.77
2023-04-22T06:44:42.212Z,32.97
2023-04-22T06:47:10.292Z,33.07
2023-04-22T06:49:40.029Z,31.80
2023-04-22T06:52:08.240Z,34.97
2023-04-22T06:54:36.286Z,33.30
2023-04-22T06:57:04.369Z,32.20
2023-04-22T06:59:32.462Z,34.20
2023-04-22T07:02:00.733Z,33.83
2023-04-22T07:04:29.371Z,33.83
2023-04-22T07:06:59.208Z,33.70
2023-04-22T07:09:29.060Z,32.80
2023-04-22T07:11:57.926Z,35.30
2023-04-22T07:14:27.465Z,33.63
2023-04-22T07:16:55.620Z,33.67
2023-04-22T07:19:23.771Z,33.13
2023-04-22T07:21:51.974Z,32.93
2023-04-22T07:24:21.572Z,33.13
2023-04-22T07:26:49.576Z,32.67
2023-04-22T07:29:17.588Z,31.90
2023-04-22T07:31:45.831Z,33.53
2023-04-22T07:34:14.243Z,33.33
2023-04-22T07:36:42.638Z,34.40
2023-04-22T07:39:10.938Z,34.03
2023-04-22T07:41:40.415Z,33.80
2023-04-22T07:44:10.499Z,34.10
2023-04-22T07:46:38.552Z,33.13
2023-04-22T07:49:06.616Z,31.87
2023-04-22T07:51:34.673Z,32.53
2023-04-22T07:54:02.711Z,31.67
2023-04-22T07:56:30.897Z,33.33
2023-04-22T07:59:00.287Z,31.87
2023-04-22T08:01:28.339Z,32.30
2023-04-22T08:03:58.129Z,32.63
2023-04-22T08:06:28.177Z,31.93
2023-04-22T08:08:56.263Z,31.23
2023-04-22T08:11:24.317Z,33.03
2023-04-22T08:13:52.412Z,33.13
2023-04-22T08:16:21.951Z,33.27
2023-04-22T08:18:50.155Z,34.93
2023-04-22T08:21:18.156Z,34.67
2023-04-22T08:23:46.349Z,33.63
2023-04-22T08:26:16.313Z,32.37
2023-04-22T08:28:44.450Z,33.37
2023-04-22T08:31:13.138Z,33.27
2023-04-22T08:33:42.875Z,30.57
2023-04-22T08:36:11.228Z,31.50
2023-04-22T08:38:39.355Z,33.40
2023-04-22T08:41:08.685Z,31.83
2023-04-22T08:43:37.469Z,31.60
2023-04-22T08:46:05.849Z,30.90
2023-04-22T08:48:34.071Z,30.97
2023-04-22T08:51:03.836Z,30.57
2023-04-22T08:53:32.803Z,33.27
2023-04-22T08:56:01.766Z,31.50
2023-04-22T08:58:31.053Z,31.87
2023-04-22T09:00:59.343Z,34.10
2023-04-22T09:03:28.461Z,32.07
2023-04-22T09:05:57.465Z,29.53
2023-04-22T09:08:29.480Z,29.90
2023-04-22T09:10:58.752Z,29.77
2023-04-22T09:13:27.832Z,29.53
2023-04-22T09:15:58.639Z,32.37
2023-04-22T09:18:27.869Z,29.73
2023-04-22T09:20:57.402Z,29.10
2023-04-22T09:23:27.128Z,29.67
2023-04-22T09:25:58.583Z,30.60
2023-04-22T09:28:26.681Z,31.07
2023-04-22T09:30:54.757Z,31.60
2023-04-22T09:33:26.467Z,32.40
2023-04-22T09:35:54.610Z,32.73
2023-04-22T09:38:22.635Z,32.33
2023-04-22T09:40:52.236Z,33.50
2023-04-22T09:43:21.137Z,34.00
2023-04-22T09:45:49.357Z,34.50
2023-04-22T09:48:20.119Z,34.90
2023-04-22T09:50:50.487Z,32.00
2023-04-22T09:53:20.264Z,29.83
2023-04-22T09:55:50.420Z,28.50
2023-04-22T09:58:21.414Z,26.50
2023-04-22T10:00:51.527Z,27.80
2023-04-22T10:03:20.310Z,23.73
2023-04-22T10:05:48.502Z,24.17
2023-04-22T10:08:17.615Z,22.93
2023-04-22T10:10:46.467Z,23.33
2023-04-22T10:13:14.845Z,20.93
2023-04-22T10:15:49.716Z,19.33
2023-04-22T10:18:22.844Z,19.50
2023-04-22T10:20:52.191Z,16.77
2023-04-22T10:23:21.932Z,15.30
2023-04-22T10:25:51.476Z,16.37
2023-04-22T10:28:21.714Z,17.43
2023-04-22T10:30:51.462Z,18.07
2023-04-22T10:33:39.219Z,19.20
2023-04-22T10:36:12.469Z,20.83
2023-04-22T10:38:42.104Z,21.73
2023-04-22T10:41:15.348Z,23.47
2023-04-22T10:43:44.874Z,22.57
2023-04-22T10:46:46.450Z,24.17
2023-04-22T10:49:20.592Z,26.80
2023-04-22T10:51:49.941Z,26.93
2023-04-22T10:54:51.084Z,26.93
2023-04-22T10:57:22.781Z,27.13
2023-04-22T10:59:54.253Z,24.37
2023-04-22T11:02:23.585Z,21.10
2023-04-22T11:04:54.461Z,20.33
2023-04-22T11:07:34.221Z,19.97
2023-04-22T11:10:09.757Z,22.83
2023-04-22T11:12:45.089Z,23.37
2023-04-22T11:15:15.034Z,20.33
2023-04-22T11:17:45.004Z,18.27
2023-04-22T11:20:17.407Z,20.50
2023-04-22T11:22:47.186Z,20.63
2023-04-22T11:25:16.058Z,22.27
2023-04-22T11:27:44.585Z,21.33
2023-04-22T11:30:15.336Z,20.93
2023-04-22T11:32:45.309Z,21.03
2023-04-22T11:35:16.260Z,22.10
2023-04-22T11:37:45.903Z,22.33
2023-04-22T11:40:29.281Z,22.53
2023-04-22T11:43:00.412Z,23.47
2023-04-22T11:45:29.460Z,21.67
2023-04-22T11:47:58.060Z,21.10
2023-04-22T11:50:29.994Z,22.30
2023-04-22T11:52:59.587Z,20.70
2023-04-22T11:55:30.550Z,18.87
2023-04-22T11:58:00.452Z,19.43
2023-04-22T12:00:31.868Z,20.10
2023-04-22T12:03:01.709Z,17.53
2023-04-22T12:05:40.167Z,18.33
2023-04-22T12:08:10.768Z,19.03
2023-04-22T12:10:43.587Z,19.53
2023-04-22T12:13:12.568Z,18.60
2023-04-22T12:15:42.510Z,19.03
2023-04-22T12:18:12.551Z,17.80
2023-04-22T12:20:43.027Z,18.07
2023-04-22T12:23:17.210Z,17.83
2023-04-22T12:25:45.351Z,18.87
2023-04-22T12:28:14.292Z,17.27
2023-04-22T12:30:44.405Z,17.93
2023-04-22T12:33:12.463Z,18.73
2023-04-22T12:35:41.869Z,18.27
2023-04-22T12:38:10.000Z,18.20
2023-04-22T12:40:38.061Z,17.47
2023-04-22T12:43:06.283Z,16.70
2023-04-22T12:45:34.554Z,17.33
2023-04-22T12:48:02.746Z,18.03
2023-04-22T12:50:30.838Z,20.20
2023-04-22T12:53:00.259Z,19.30
2023-04-22T12:55:28.574Z,17.73
2023-04-22T12:57:59.660Z,18.03
2023-04-22T13:00:27.822Z,18.40
2023-04-22T13:02:56.109Z,17.50
2023-04-22T13:05:24.411Z,17.10
2023-04-22T13:08:05.899Z,18.33
2023-04-22T13:10:37.122Z,19.30
2023-04-22T13:13:17.706Z,19.50
2023-04-22T13:15:47.600Z,19.07
2023-04-22T13:18:16.674Z,18.30
2023-04-22T13:20:44.813Z,19.13
2023-04-22T13:23:13.312Z,19.37
2023-04-22T13:25:42.851Z,18.87
2023-04-22T13:28:11.917Z,19.23
2023-04-22T13:30:40.210Z,18.60
2023-04-22T13:33:08.400Z,19.13
2023-04-22T13:35:36.874Z,18.77
2023-04-22T13:38:05.124Z,18.30
2023-04-22T13:40:33.191Z,18.63
2023-04-22T13:43:02.624Z,19.77
2023-04-22T13:45:30.774Z,19.27
2023-04-22T13:47:58.978Z,18.40
2023-04-22T13:50:29.875Z,18.70
2023-04-22T13:52:57.962Z,18.80
2023-04-22T13:55:26.674Z,19.63
2023-04-22T13:57:54.864Z,19.60
2023-04-22T14:00:24.292Z,18.27
2023-04-22T14:02:52.571Z,17.63
2023-04-22T14:05:20.771Z,18.33
2023-04-22T14:07:48.875Z,17.63
2023-04-22T14:10:20.316Z,17.63
2023-04-22T14:12:49.655Z,18.00
2023-04-22T14:15:17.784Z,17.47
2023-04-22T14:17:49.338Z,16.77
2023-04-22T14:20:17.638Z,14.37
2023-04-22T14:22:46.400Z,14.23
2023-04-22T14:25:14.578Z,14.40
2023-04-22T14:27:42.585Z,14.47
2023-04-22T14:30:11.668Z,10.43
2023-04-22T14:32:39.808Z,12.50
2023-04-22T14:35:09.808Z,10.90
2023-04-22T14:37:39.194Z,10.63
2023-04-22T14:40:08.670Z,9.83
2023-04-22T14:42:37.154Z,10.03
2023-04-22T14:45:05.965Z,10.70
2023-04-22T14:47:34.225Z,11.47
2023-04-22T14:50:02.549Z,11.87
2023-04-22T14:52:32.932Z,12.93
2023-04-22T14:55:11.772Z,13.73
2023-04-22T14:57:40.244Z,13.13
2023-04-22T15:00:10.108Z,13.63
2023-04-22T15:02:38.640Z,13.90
2023-04-22T15:05:07.046Z,15.53
2023-04-22T15:07:36.475Z,17.87
2023-04-22T15:10:04.996Z,17.30
2023-04-22T15:12:33.075Z,18.53
2023-04-22T15:15:01.102Z,18.70
2023-04-22T15:17:30.779Z,20.20
2023-04-22T15:19:58.946Z,19.83
2023-04-22T15:22:27.021Z,19.97
2023-04-22T15:24:56.456Z,19.80
2023-04-22T15:27:24.596Z,18.77
2023-04-22T15:29:52.821Z,18.77
2023-04-22T15:32:21.010Z,19.37
2023-04-22T15:34:49.044Z,18.00
2023-04-22T15:37:17.506Z,18.43
2023-04-22T15:39:45.732Z,18.57
2023-04-22T15:42:15.758Z,17.23
2023-04-22T15:44:43.795Z,15.47
2023-04-22T15:47:12.149Z,17.70
2023-04-22T15:49:40.368Z,18.70
2023-04-22T15:52:09.327Z,16.83
2023-04-22T15:54:37.412Z,17.67
2023-04-22T15:57:05.478Z,16.50
2023-04-22T15:59:34.926Z,16.50
2023-04-22T16:02:03.368Z,16.23
2023-04-22T16:04:31.711Z,16.00
2023-04-22T16:07:00.368Z,15.77
2023-04-22T16:09:28.464Z,15.20
2023-04-22T16:11:56.981Z,16.40
2023-04-22T16:14:27.084Z,16.27
2023-04-22T16:16:56.585Z,16.97
2023-04-22T16:19:24.664Z,15.90
2023-04-22T16:21:52.914Z,16.03
2023-04-22T16:24:20.984Z,16.20
2023-04-22T16:26:49.043Z,15.20
2023-04-22T16:29:17.222Z,16.50
2023-04-22T16:31:45.274Z,16.10
2023-04-22T16:34:14.795Z,16.23
2023-04-22T16:36:44.372Z,17.23
2023-04-22T16:39:12.495Z,16.37
2023-04-22T16:41:41.180Z,16.77
2023-04-22T16:44:10.051Z,16.57
2023-04-22T16:46:38.289Z,15.90
2023-04-22T16:49:08.446Z,16.13
2023-04-22T16:51:39.931Z,17.07
2023-04-22T16:54:08.018Z,18.93
2023-04-22T16:56:36.044Z,19.13
2023-04-22T16:59:04.222Z,17.10
2023-04-22T17:01:32.315Z,24.23
2023-04-22T17:04:00.906Z,20.17
2023-04-22T17:06:29.111Z,25.43
2023-04-22T17:09:00.155Z,16.53
2023-04-22T17:11:32.245Z,15.23
2023-04-22T17:14:00.372Z,19.43
2023-04-22T17:16:28.471Z,16.23
2023-04-22T17:18:56.576Z,15.17
2023-04-22T17:21:25.485Z,16.73
2023-04-22T17:23:53.635Z,15.37
2023-04-22T17:26:23.116Z,15.73
2023-04-22T17:28:51.215Z,15.17
2023-04-22T17:31:19.446Z,15.20
2023-04-22T17:33:47.535Z,16.90
2023-04-22T17:36:16.123Z,16.00
2023-04-22T17:38:45.963Z,16.13
2023-04-22T17:41:14.149Z,16.40
2023-04-22T17:43:43.639Z,17.03
2023-04-22T17:46:11.914Z,16.50
2023-04-22T17:48:41.023Z,16.20
2023-04-22T17:51:10.143Z,14.77
2023-04-22T17:53:40.923Z,16.47
2023-04-22T17:56:09.092Z,15.83
2023-04-22T17:58:38.566Z,16.43
2023-04-22T18:01:08.745Z,15.57
2023-04-22T18:03:37.596Z,16.70
2023-04-22T18:06:06.363Z,16.23
2023-04-22T18:08:35.288Z,16.23
2023-04-22T18:11:05.074Z,16.07
2023-04-22T18:13:33.500Z,15.67
2023-04-22T18:16:01.576Z,16.60
2023-04-22T18:18:31.175Z,16.70
2023-04-22T18:21:00.742Z,16.03
2023-04-22T18:23:29.952Z,16.97
2023-04-22T18:25:58.029Z,18.00
2023-04-22T18:28:26.042Z,16.33
2023-04-22T18:30:54.117Z,16.53
2023-04-22T18:33:22.175Z,16.17
